sensor_id;sensor_type;location;lat;lon;timestamp;pressure;altitude;pressure_sealevel;temperature;humidity
48200;BME280;33990;44.602;10.976;2022-09-01T00:02:31;100715.22;;;26.14;61.21
48200;BME280;33990;44.602;10.976;2022-09-01T00:04:59;100715.22;;;26.14;60.90
48200;BME280;33990;44.602;10.976;2022-09-01T00:07:28;100712.50;;;26.14;60.95
48200;BME280;33990;44.602;10.976;2022-09-01T00:09:58;100704.19;;;26.16;60.91
48200;BME280;33990;44.602;10.976;2022-09-01T00:12:26;100689.78;;;26.15;61.40
48200;BME280;33990;44.602;10.976;2022-09-01T00:14:54;100693.53;;;26.14;61.40
48200;BME280;33990;44.602;10.976;2022-09-01T00:17:21;100699.59;;;26.16;61.39
48200;BME280;33990;44.602;10.976;2022-09-01T00:19:48;100696.03;;;26.16;61.43
48200;BME280;33990;44.602;10.976;2022-09-01T00:22:16;100693.31;;;26.16;61.60
48200;BME280;33990;44.602;10.976;2022-09-01T00:24:44;100694.16;;;26.16;61.74
48200;BME280;33990;44.602;10.976;2022-09-01T00:27:11;100705.03;;;26.16;61.92
48200;BME280;33990;44.602;10.976;2022-09-01T00:29:39;100705.03;;;26.16;61.70
48200;BME280;33990;44.602;10.976;2022-09-01T00:32:10;100697.72;;;26.17;61.79
48200;BME280;33990;44.602;10.976;2022-09-01T00:34:38;100703.16;;;26.17;61.93
48200;BME280;33990;44.602;10.976;2022-09-01T00:37:06;100701.31;;;26.17;61.86
48200;BME280;33990;44.602;10.976;2022-09-01T00:39:34;100702.16;;;26.18;61.67
48200;BME280;33990;44.602;10.976;2022-09-01T00:42:01;100695.88;;;26.17;61.56
48200;BME280;33990;44.602;10.976;2022-09-01T00:44:29;100694.00;;;26.18;61.56
48200;BME280;33990;44.602;10.976;2022-09-01T00:46:58;100683.16;;;26.18;61.73
48200;BME280;33990;44.602;10.976;2022-09-01T00:49:29;100685.88;;;26.18;61.84
48200;BME280;33990;44.602;10.976;2022-09-01T00:52:09;100680.44;;;26.18;62.12
48200;BME280;33990;44.602;10.976;2022-09-01T00:54:42;100683.16;;;26.18;62.31
48200;BME280;33990;44.602;10.976;2022-09-01T00:57:10;100699.25;;;26.19;62.08
48200;BME280;33990;44.602;10.976;2022-09-01T00:59:46;100695.69;;;26.19;62.44
48200;BME280;33990;44.602;10.976;2022-09-01T01:02:16;100703.00;;;26.18;62.52
48200;BME280;33990;44.602;10.976;2022-09-01T01:04:43;100690.25;;;26.19;62.35
48200;BME280;33990;44.602;10.976;2022-09-01T01:07:12;100689.22;;;26.20;62.41
48200;BME280;33990;44.602;10.976;2022-09-01T01:09:43;100687.34;;;26.20;62.50
48200;BME280;33990;44.602;10.976;2022-09-01T01:12:11;100691.09;;;26.19;62.74
48200;BME280;33990;44.602;10.976;2022-09-01T01:14:40;100690.06;;;26.20;62.66
48200;BME280;33990;44.602;10.976;2022-09-01T01:17:11;100687.53;;;26.19;62.46
48200;BME280;33990;44.602;10.976;2022-09-01T01:19:41;100686.72;;;26.18;62.43
48200;BME280;33990;44.602;10.976;2022-09-01T01:22:38;100690.06;;;26.20;62.34
48200;BME280;33990;44.602;10.976;2022-09-01T01:28:15;100705.50;;;26.20;62.50
48200;BME280;33990;44.602;10.976;2022-09-01T01:30:50;100709.06;;;26.20;62.69
48200;BME280;33990;44.602;10.976;2022-09-01T01:33:21;100694.66;;;26.20;62.50
48200;BME280;33990;44.602;10.976;2022-09-01T01:35:52;100696.53;;;26.19;62.80
48200;BME280;33990;44.602;10.976;2022-09-01T01:38:19;100698.22;;;26.20;62.80
48200;BME280;33990;44.602;10.976;2022-09-01T01:40:51;100697.38;;;26.20;62.70
48200;BME280;33990;44.602;10.976;2022-09-01T01:43:23;100692.78;;;26.20;62.97
48200;BME280;33990;44.602;10.976;2022-09-01T01:45:53;100697.38;;;26.20;62.78
48200;BME280;33990;44.602;10.976;2022-09-01T01:48:25;100693.63;;;26.21;62.81
48200;BME280;33990;44.602;10.976;2022-09-01T01:50:55;100691.94;;;26.20;62.53
48200;BME280;33990;44.602;10.976;2022-09-01T01:53:26;100699.91;;;26.21;62.76
48200;BME280;33990;44.602;10.976;2022-09-01T01:55:54;100702.63;;;26.21;62.79
48200;BME280;33990;44.602;10.976;2022-09-01T01:58:23;100717.03;;;26.22;62.66
48200;BME280;33990;44.602;10.976;2022-09-01T02:00:52;100713.50;;;26.21;62.79
48200;BME280;33990;44.602;10.976;2022-09-01T02:03:23;100702.63;;;26.21;62.41
48200;BME280;33990;44.602;10.976;2022-09-01T02:05:53;100704.31;;;26.22;62.63
48200;BME280;33990;44.602;10.976;2022-09-01T02:08:22;100702.63;;;26.21;62.38
48200;BME280;33990;44.602;10.976;2022-09-01T02:10:53;100708.91;;;26.22;62.70
48200;BME280;33990;44.602;10.976;2022-09-01T02:13:23;100712.47;;;26.22;62.73
48200;BME280;33990;44.602;10.976;2022-09-01T02:15:54;100706.19;;;26.22;63.04
48200;BME280;33990;44.602;10.976;2022-09-01T02:18:35;100703.47;;;26.22;63.07
48200;BME280;33990;44.602;10.976;2022-09-01T02:21:05;100689.91;;;26.22;63.47
48200;BME280;33990;44.602;10.976;2022-09-01T02:23:45;100708.91;;;26.22;63.16
48200;BME280;33990;44.602;10.976;2022-09-01T02:26:13;100710.78;;;26.21;62.94
48200;BME280;33990;44.602;10.976;2022-09-01T02:28:46;100714.34;;;26.22;62.90
48200;BME280;33990;44.602;10.976;2022-09-01T02:31:25;100715.16;;;26.22;63.02
48200;BME280;33990;44.602;10.976;2022-09-01T02:33:57;100717.69;;;26.24;62.94
48200;BME280;33990;44.602;10.976;2022-09-01T02:36:24;100713.28;;;26.23;62.86
48200;BME280;33990;44.602;10.976;2022-09-01T02:38:53;100714.34;;;26.22;62.84
48200;BME280;33990;44.602;10.976;2022-09-01T02:41:23;100706.19;;;26.22;62.89
48200;BME280;33990;44.602;10.976;2022-09-01T02:43:53;100702.44;;;26.23;63.00
48200;BME280;33990;44.602;10.976;2022-09-01T02:46:21;100708.72;;;26.23;62.92
48200;BME280;33990;44.602;10.976;2022-09-01T02:48:51;100702.44;;;26.23;62.89
48200;BME280;33990;44.602;10.976;2022-09-01T02:51:21;100697.00;;;26.23;62.79
48200;BME280;33990;44.602;10.976;2022-09-01T02:53:52;100705.16;;;26.23;63.11
48200;BME280;33990;44.602;10.976;2022-09-01T02:56:23;100698.69;;;26.24;63.05
48200;BME280;33990;44.602;10.976;2022-09-01T02:58:53;100693.28;;;26.24;63.16
48200;BME280;33990;44.602;10.976;2022-09-01T03:01:29;100695.97;;;26.24;63.42
48200;BME280;33990;44.602;10.976;2022-09-01T03:04:01;100684.47;;;26.22;63.88
48200;BME280;33990;44.602;10.976;2022-09-01T03:06:29;100686.34;;;26.21;63.66
48200;BME280;33990;44.602;10.976;2022-09-01T03:09:04;100694.66;;;26.20;63.53
48200;BME280;33990;44.602;10.976;2022-09-01T03:11:33;100698.41;;;26.19;63.85
48200;BME280;33990;44.602;10.976;2022-09-01T03:14:02;100707.38;;;26.19;63.76
48200;BME280;33990;44.602;10.976;2022-09-01T03:16:29;100716.56;;;26.18;64.36
48200;BME280;33990;44.602;10.976;2022-09-01T03:18:58;100711.28;;;26.17;64.47
48200;BME280;33990;44.602;10.976;2022-09-01T03:21:25;100713.00;;;26.18;64.31
48200;BME280;33990;44.602;10.976;2022-09-01T03:23:53;100700.44;;;26.17;64.28
48200;BME280;33990;44.602;10.976;2022-09-01T03:26:21;100690.63;;;26.16;64.11
48200;BME280;33990;44.602;10.976;2022-09-01T03:28:50;100685.19;;;26.16;64.51
48200;BME280;33990;44.602;10.976;2022-09-01T03:31:19;100682.47;;;26.16;64.18
48200;BME280;33990;44.602;10.976;2022-09-01T03:33:49;100679.75;;;26.16;64.22
48200;BME280;33990;44.602;10.976;2022-09-01T03:36:23;100681.63;;;26.15;64.00
48200;BME280;33990;44.602;10.976;2022-09-01T03:38:51;100688.94;;;26.14;64.38
48200;BME280;33990;44.602;10.976;2022-09-01T03:41:25;100703.34;;;26.15;64.32
48200;BME280;33990;44.602;10.976;2022-09-01T03:43:55;100698.09;;;26.13;64.43
48200;BME280;33990;44.602;10.976;2022-09-01T03:46:28;100693.69;;;26.12;64.49
48200;BME280;33990;44.602;10.976;2022-09-01T03:49:04;100692.84;;;26.12;64.23
48200;BME280;33990;44.602;10.976;2022-09-01T03:51:36;100695.56;;;26.12;64.40
48200;BME280;33990;44.602;10.976;2022-09-01T03:54:06;100698.25;;;26.12;64.22
48200;BME280;33990;44.602;10.976;2022-09-01T03:56:33;100693.69;;;26.12;64.30
48200;BME280;33990;44.602;10.976;2022-09-01T03:59:01;100698.25;;;26.12;64.36
48200;BME280;33990;44.602;10.976;2022-09-01T04:01:30;100694.56;;;26.13;64.24
48200;BME280;33990;44.602;10.976;2022-09-01T04:04:02;100698.09;;;26.13;64.59
48200;BME280;33990;44.602;10.976;2022-09-01T04:06:32;100694.56;;;26.13;64.42
48200;BME280;33990;44.602;10.976;2022-09-01T04:09:00;100682.81;;;26.12;64.35
48200;BME280;33990;44.602;10.976;2022-09-01T04:11:32;100688.25;;;26.12;64.35
48200;BME280;33990;44.602;10.976;2022-09-01T04:14:00;100686.56;;;26.11;64.03
48200;BME280;33990;44.602;10.976;2022-09-01T04:16:32;100682.81;;;26.12;64.17
48200;BME280;33990;44.602;10.976;2022-09-01T04:19:21;100690.13;;;26.12;64.04
48200;BME280;33990;44.602;10.976;2022-09-01T04:21:58;100681.16;;;26.11;64.12
48200;BME280;33990;44.602;10.976;2022-09-01T04:24:31;100691.16;;;26.11;64.15
48200;BME280;33990;44.602;10.976;2022-09-01T04:27:01;100697.63;;;26.10;64.15
48200;BME280;33990;44.602;10.976;2022-09-01T04:29:30;100690.47;;;26.09;64.19
48200;BME280;33990;44.602;10.976;2022-09-01T04:32:05;100683.22;;;26.09;64.16
48200;BME280;33990;44.602;10.976;2022-09-01T04:34:37;100690.47;;;26.09;63.98
48200;BME280;33990;44.602;10.976;2022-09-01T04:37:08;100691.50;;;26.08;64.02
48200;BME280;33990;44.602;10.976;2022-09-01T04:39:36;100690.47;;;26.09;64.08
48200;BME280;33990;44.602;10.976;2022-09-01T04:42:05;100686.09;;;26.08;64.00
48200;BME280;33990;44.602;10.976;2022-09-01T04:44:35;100678.78;;;26.08;64.03
48200;BME280;33990;44.602;10.976;2022-09-01T04:47:04;100672.72;;;26.06;64.10
48200;BME280;33990;44.602;10.976;2022-09-01T04:49:37;100675.44;;;26.06;64.18
48200;BME280;33990;44.602;10.976;2022-09-01T04:52:04;100675.44;;;26.06;63.97
48200;BME280;33990;44.602;10.976;2022-09-01T04:54:32;100675.44;;;26.06;64.05
48200;BME280;33990;44.602;10.976;2022-09-01T04:57:01;100678.13;;;26.06;63.99
48200;BME280;33990;44.602;10.976;2022-09-01T04:59:35;100677.28;;;26.06;64.16
48200;BME280;33990;44.602;10.976;2022-09-01T05:02:02;100672.03;;;26.04;63.99
48200;BME280;33990;44.602;10.976;2022-09-01T05:04:35;100672.03;;;26.04;63.76
48200;BME280;33990;44.602;10.976;2022-09-01T05:07:04;100672.03;;;26.04;63.91
48200;BME280;33990;44.602;10.976;2022-09-01T05:09:36;100672.03;;;26.04;64.04
48200;BME280;33990;44.602;10.976;2022-09-01T05:12:34;100682.88;;;26.04;63.78
48200;BME280;33990;44.602;10.976;2022-09-01T05:15:03;100687.31;;;26.05;64.06
48200;BME280;33990;44.602;10.976;2022-09-01T05:17:35;100682.03;;;26.04;63.96
48200;BME280;33990;44.602;10.976;2022-09-01T05:20:05;100685.59;;;26.04;64.02
48200;BME280;33990;44.602;10.976;2022-09-01T05:22:34;100680.38;;;26.03;64.16
48200;BME280;33990;44.602;10.976;2022-09-01T05:25:07;100673.91;;;26.04;63.89
48200;BME280;33990;44.602;10.976;2022-09-01T05:27:43;100676.81;;;26.02;63.96
48200;BME280;33990;44.602;10.976;2022-09-01T05:30:21;100680.56;;;26.01;64.12
48200;BME280;33990;44.602;10.976;2022-09-01T05:32:48;100683.25;;;26.01;63.96
48200;BME280;33990;44.602;10.976;2022-09-01T05:35:17;100685.97;;;26.01;64.04
48200;BME280;33990;44.602;10.976;2022-09-01T05:37:44;100692.25;;;26.02;64.12
48200;BME280;33990;44.602;10.976;2022-09-01T05:40:12;100695.81;;;26.02;64.11
48200;BME280;33990;44.602;10.976;2022-09-01T05:42:43;100702.25;;;26.01;64.17
48200;BME280;33990;44.602;10.976;2022-09-01T05:45:11;100710.41;;;26.01;64.17
48200;BME280;33990;44.602;10.976;2022-09-01T05:47:40;100705.31;;;25.98;64.20
48200;BME280;33990;44.602;10.976;2022-09-01T05:50:09;100717.84;;;25.99;63.98
48200;BME280;33990;44.602;10.976;2022-09-01T05:52:41;100721.41;;;26.00;64.10
48200;BME280;33990;44.602;10.976;2022-09-01T05:55:14;100715.97;;;26.00;63.80
48200;BME280;33990;44.602;10.976;2022-09-01T05:57:43;100719.53;;;26.00;63.94
48200;BME280;33990;44.602;10.976;2022-09-01T06:00:16;100714.09;;;26.00;63.83
48200;BME280;33990;44.602;10.976;2022-09-01T06:02:46;100729.38;;;26.01;63.79
48200;BME280;33990;44.602;10.976;2022-09-01T06:05:19;100731.22;;;26.01;63.99
48200;BME280;33990;44.602;10.976;2022-09-01T06:07:49;100741.91;;;26.02;63.74
48200;BME280;33990;44.602;10.976;2022-09-01T06:10:17;100741.06;;;26.02;63.83
48200;BME280;33990;44.602;10.976;2022-09-01T06:12:44;100749.03;;;26.03;63.94
48200;BME280;33990;44.602;10.976;2022-09-01T06:15:16;100749.88;;;26.04;63.95
48200;BME280;33990;44.602;10.976;2022-09-01T06:17:50;100747.16;;;26.04;63.86
48200;BME280;33990;44.602;10.976;2022-09-01T06:20:18;100756.13;;;26.04;63.84
48200;BME280;33990;44.602;10.976;2022-09-01T06:22:46;100751.75;;;26.03;64.23
48200;BME280;33990;44.602;10.976;2022-09-01T06:25:15;100756.13;;;26.04;63.86
48200;BME280;33990;44.602;10.976;2022-09-01T06:27:46;100757.16;;;26.03;64.07
48200;BME280;33990;44.602;10.976;2022-09-01T06:30:16;100754.44;;;26.03;64.07
48200;BME280;33990;44.602;10.976;2022-09-01T06:33:11;100751.75;;;26.03;64.16
48200;BME280;33990;44.602;10.976;2022-09-01T06:35:45;100759.03;;;26.03;64.05
48200;BME280;33990;44.602;10.976;2022-09-01T06:38:16;100752.75;;;26.02;63.98
48200;BME280;33990;44.602;10.976;2022-09-01T06:40:46;100758.00;;;26.04;64.03
48200;BME280;33990;44.602;10.976;2022-09-01T06:43:17;100760.72;;;26.04;64.13
48200;BME280;33990;44.602;10.976;2022-09-01T06:45:47;100766.97;;;26.04;64.08
48200;BME280;33990;44.602;10.976;2022-09-01T06:48:23;100754.44;;;26.03;64.18
48200;BME280;33990;44.602;10.976;2022-09-01T06:51:01;100759.88;;;26.03;64.18
48200;BME280;33990;44.602;10.976;2022-09-01T06:53:53;100768.00;;;26.03;64.15
48200;BME280;33990;44.602;10.976;2022-09-01T06:56:28;100767.38;;;26.01;64.78
48200;BME280;33990;44.602;10.976;2022-09-01T06:59:00;100772.09;;;25.99;64.97
48200;BME280;33990;44.602;10.976;2022-09-01T07:01:33;100765.53;;;25.94;65.08
48200;BME280;33990;44.602;10.976;2022-09-01T07:04:02;100777.75;;;25.89;65.10
48200;BME280;33990;44.602;10.976;2022-09-01T07:06:40;100783.22;;;25.81;64.25
48200;BME280;33990;44.602;10.976;2022-09-01T07:09:36;100781.88;;;25.77;64.01
48200;BME280;33990;44.602;10.976;2022-09-01T07:12:44;100787.94;;;25.71;64.05
48200;BME280;33990;44.602;10.976;2022-09-01T07:15:38;100791.38;;;25.65;63.29
48200;BME280;33990;44.602;10.976;2022-09-01T07:18:27;100790.38;;;25.58;62.16
48200;BME280;33990;44.602;10.976;2022-09-01T07:20:55;100800.72;;;25.54;61.41
48200;BME280;33990;44.602;10.976;2022-09-01T07:23:45;100794.63;;;25.52;61.15
48200;BME280;33990;44.602;10.976;2022-09-01T07:26:34;100794.63;;;25.52;61.16
48200;BME280;33990;44.602;10.976;2022-09-01T07:29:04;100800.06;;;25.52;61.00
48200;BME280;33990;44.602;10.976;2022-09-01T07:31:40;100801.75;;;25.53;60.02
48200;BME280;33990;44.602;10.976;2022-09-01T07:34:30;100801.91;;;25.52;59.60
48200;BME280;33990;44.602;10.976;2022-09-01T07:37:09;100806.66;;;25.50;59.27
48200;BME280;33990;44.602;10.976;2022-09-01T07:39:57;100799.56;;;25.49;58.82
48200;BME280;33990;44.602;10.976;2022-09-01T07:42:54;100805.13;;;25.47;58.29
48200;BME280;33990;44.602;10.976;2022-09-01T07:45:55;100796.34;;;25.45;58.73
48200;BME280;33990;44.602;10.976;2022-09-01T07:48:27;100794.63;;;25.44;58.95
48200;BME280;33990;44.602;10.976;2022-09-01T07:51:16;100799.41;;;25.42;59.21
48200;BME280;33990;44.602;10.976;2022-09-01T07:54:04;100794.63;;;25.44;59.36
48200;BME280;33990;44.602;10.976;2022-09-01T07:56:33;100788.03;;;25.47;59.40
48200;BME280;33990;44.602;10.976;2022-09-01T07:59:08;100790.94;;;25.45;59.19
48200;BME280;33990;44.602;10.976;2022-09-01T08:01:53;100789.22;;;25.44;59.24
48200;BME280;33990;44.602;10.976;2022-09-01T08:04:21;100790.25;;;25.43;58.92
48200;BME280;33990;44.602;10.976;2022-09-01T08:06:49;100793.97;;;25.42;58.97
48200;BME280;33990;44.602;10.976;2022-09-01T08:09:18;100788.56;;;25.42;59.07
48200;BME280;33990;44.602;10.976;2022-09-01T08:11:59;100785.00;;;25.42;59.23
48200;BME280;33990;44.602;10.976;2022-09-01T08:14:32;100784.16;;;25.41;59.41
48200;BME280;33990;44.602;10.976;2022-09-01T08:17:00;100780.41;;;25.42;59.55
48200;BME280;33990;44.602;10.976;2022-09-01T08:19:44;100785.84;;;25.42;59.86
48200;BME280;33990;44.602;10.976;2022-09-01T08:22:20;100783.13;;;25.42;59.85
48200;BME280;33990;44.602;10.976;2022-09-01T08:24:57;100782.09;;;25.43;60.25
48200;BME280;33990;44.602;10.976;2022-09-01T08:27:24;100776.34;;;25.46;60.21
48200;BME280;33990;44.602;10.976;2022-09-01T08:29:52;100786.00;;;25.49;60.25
48200;BME280;33990;44.602;10.976;2022-09-01T08:32:19;100792.94;;;25.51;60.58
48200;BME280;33990;44.602;10.976;2022-09-01T08:34:47;100795.81;;;25.50;60.46
48200;BME280;33990;44.602;10.976;2022-09-01T08:37:16;100801.06;;;25.51;60.38
48200;BME280;33990;44.602;10.976;2022-09-01T08:39:43;100801.06;;;25.51;60.30
48200;BME280;33990;44.602;10.976;2022-09-01T08:45:26;100806.31;;;25.53;60.14
48200;BME280;33990;44.602;10.976;2022-09-01T08:47:56;100804.47;;;25.53;60.43
48200;BME280;33990;44.602;10.976;2022-09-01T08:51:02;100799.03;;;25.53;60.28
48200;BME280;33990;44.602;10.976;2022-09-01T08:54:02;100811.56;;;25.54;60.53
48200;BME280;33990;44.602;10.976;2022-09-01T08:56:31;100806.97;;;25.55;60.43
48200;BME280;33990;44.602;10.976;2022-09-01T08:59:05;100812.41;;;25.55;60.48
48200;BME280;33990;44.602;10.976;2022-09-01T09:08:01;100809.53;;;25.56;60.28
48200;BME280;33990;44.602;10.976;2022-09-01T09:16:42;100804.59;;;25.52;59.90
48200;BME280;33990;44.602;10.976;2022-09-01T09:21:59;100798.34;;;25.51;60.08
48200;BME280;33990;44.602;10.976;2022-09-01T09:27:36;100806.47;;;25.51;60.03
48200;BME280;33990;44.602;10.976;2022-09-01T09:30:11;100805.63;;;25.51;60.31
48200;BME280;33990;44.602;10.976;2022-09-01T09:35:37;100816.47;;;25.51;60.68
48200;BME280;33990;44.602;10.976;2022-09-01T09:41:07;100822.09;;;25.49;60.64
48200;BME280;33990;44.602;10.976;2022-09-01T09:46:36;100820.06;;;25.43;61.00
48200;BME280;33990;44.602;10.976;2022-09-01T09:49:20;100818.19;;;25.44;61.26
48200;BME280;33990;44.602;10.976;2022-09-01T09:52:35;100815.47;;;25.44;60.65
48200;BME280;33990;44.602;10.976;2022-09-01T09:55:16;100817.53;;;25.42;61.08
48200;BME280;33990;44.602;10.976;2022-09-01T09:57:47;100811.91;;;25.43;60.86
48200;BME280;33990;44.602;10.976;2022-09-01T10:00:36;100811.91;;;25.43;60.09
48200;BME280;33990;44.602;10.976;2022-09-01T10:03:08;100815.47;;;25.44;60.43
48200;BME280;33990;44.602;10.976;2022-09-01T10:05:46;100816.31;;;25.44;60.54
48200;BME280;33990;44.602;10.976;2022-09-01T10:10:56;100810.88;;;25.44;59.97
48200;BME280;33990;44.602;10.976;2022-09-01T10:13:27;100813.59;;;25.44;59.67
48200;BME280;33990;44.602;10.976;2022-09-01T10:16:01;100808.19;;;25.44;59.82
48200;BME280;33990;44.602;10.976;2022-09-01T10:18:38;100796.34;;;25.45;59.62
48200;BME280;33990;44.602;10.976;2022-09-01T10:21:14;100798.03;;;25.46;59.21
48200;BME280;33990;44.602;10.976;2022-09-01T10:23:42;100790.75;;;25.47;59.22
48200;BME280;33990;44.602;10.976;2022-09-01T10:26:16;100796.00;;;25.48;59.16
48200;BME280;33990;44.602;10.976;2022-09-01T10:28:51;100801.44;;;25.48;58.70
48200;BME280;33990;44.602;10.976;2022-09-01T10:31:20;100800.56;;;25.48;58.92
48200;BME280;33990;44.602;10.976;2022-09-01T10:33:48;100786.84;;;25.49;58.88
48200;BME280;33990;44.602;10.976;2022-09-01T10:36:17;100788.53;;;25.50;58.37
48200;BME280;33990;44.602;10.976;2022-09-01T10:38:46;100791.94;;;25.52;58.81
48200;BME280;33990;44.602;10.976;2022-09-01T10:41:49;100792.59;;;25.54;58.73
48200;BME280;33990;44.602;10.976;2022-09-01T10:44:37;100797.66;;;25.57;58.62
48200;BME280;33990;44.602;10.976;2022-09-01T10:49:58;100799.34;;;25.58;58.49
48200;BME280;33990;44.602;10.976;2022-09-01T10:55:18;100809.66;;;25.63;58.42
48200;BME280;33990;44.602;10.976;2022-09-01T11:00:54;100797.66;;;25.65;57.98
48200;BME280;33990;44.602;10.976;2022-09-01T11:03:51;100797.66;;;25.65;58.01
48200;BME280;33990;44.602;10.976;2022-09-01T11:09:03;100790.16;;;25.68;58.64
48200;BME280;33990;44.602;10.976;2022-09-01T11:11:45;100777.28;;;25.70;58.44
48200;BME280;33990;44.602;10.976;2022-09-01T11:14:20;100781.88;;;25.69;58.18
48200;BME280;33990;44.602;10.976;2022-09-01T11:22:20;100787.13;;;25.71;57.74
48200;BME280;33990;44.602;10.976;2022-09-01T11:25:06;100786.09;;;25.72;57.87
48200;BME280;33990;44.602;10.976;2022-09-01T11:30:18;100797.78;;;25.72;57.81
48200;BME280;33990;44.602;10.976;2022-09-01T11:32:50;100788.78;;;25.72;57.57
48200;BME280;33990;44.602;10.976;2022-09-01T11:35:20;100791.50;;;25.72;57.00
48200;BME280;33990;44.602;10.976;2022-09-01T11:37:51;100790.50;;;25.73;57.00
48200;BME280;33990;44.602;10.976;2022-09-01T11:40:27;100799.47;;;25.73;57.27
48200;BME280;33990;44.602;10.976;2022-09-01T11:43:09;100790.50;;;25.73;57.73
48200;BME280;33990;44.602;10.976;2022-09-01T11:46:16;100786.94;;;25.72;57.52
48200;BME280;33990;44.602;10.976;2022-09-01T11:48:48;100793.22;;;25.73;57.60
48200;BME280;33990;44.602;10.976;2022-09-01T11:51:19;100787.78;;;25.73;57.69
48200;BME280;33990;44.602;10.976;2022-09-01T11:53:48;100800.13;;;25.75;58.00
48200;BME280;33990;44.602;10.976;2022-09-01T11:56:19;100787.59;;;25.74;57.23
48200;BME280;33990;44.602;10.976;2022-09-01T11:58:51;100792.19;;;25.74;56.57
48200;BME280;33990;44.602;10.976;2022-09-01T12:03:49;100796.28;;;25.78;56.72
48200;BME280;33990;44.602;10.976;2022-09-01T12:06:21;100790.84;;;25.78;56.06
48200;BME280;33990;44.602;10.976;2022-09-01T12:09:07;100797.63;;;25.82;56.42
48200;BME280;33990;44.602;10.976;2022-09-01T12:11:34;100788.44;;;25.83;56.23
48200;BME280;33990;44.602;10.976;2022-09-01T12:14:07;100788.25;;;25.84;56.67
48200;BME280;33990;44.602;10.976;2022-09-01T12:16:40;100777.41;;;25.84;56.68
48200;BME280;33990;44.602;10.976;2022-09-01T12:19:31;100778.28;;;25.85;56.10
48200;BME280;33990;44.602;10.976;2022-09-01T12:22:12;100783.72;;;25.85;56.01
48200;BME280;33990;44.602;10.976;2022-09-01T12:24:45;100775.56;;;25.85;55.54
48200;BME280;33990;44.602;10.976;2022-09-01T12:27:13;100772.00;;;25.84;55.87
48200;BME280;33990;44.602;10.976;2022-09-01T12:29:41;100770.16;;;25.85;57.06
48200;BME280;33990;44.602;10.976;2022-09-01T12:32:10;100778.28;;;25.85;57.21
48200;BME280;33990;44.602;10.976;2022-09-01T12:37:22;100777.25;;;25.86;57.41
48200;BME280;33990;44.602;10.976;2022-09-01T12:39:56;100775.19;;;25.88;57.37
48200;BME280;33990;44.602;10.976;2022-09-01T12:42:25;100765.19;;;25.88;57.16
48200;BME280;33990;44.602;10.976;2022-09-01T12:44:59;100771.31;;;25.91;57.82
48200;BME280;33990;44.602;10.976;2022-09-01T12:52:58;100761.97;;;25.93;58.28
48200;BME280;33990;44.602;10.976;2022-09-01T12:55:31;100765.34;;;25.95;58.52
48200;BME280;33990;44.602;10.976;2022-09-01T12:58:20;100761.59;;;25.96;58.74
48200;BME280;33990;44.602;10.976;2022-09-01T13:03:29;100758.03;;;25.96;58.41
48200;BME280;33990;44.602;10.976;2022-09-01T13:06:02;100764.50;;;25.95;58.32
48200;BME280;33990;44.602;10.976;2022-09-01T13:08:31;100759.06;;;25.95;58.49
48200;BME280;33990;44.602;10.976;2022-09-01T13:11:09;100764.31;;;25.96;57.98
48200;BME280;33990;44.602;10.976;2022-09-01T13:13:39;100759.56;;;25.98;58.03
48200;BME280;33990;44.602;10.976;2022-09-01T13:16:08;100761.06;;;26.01;58.36
48200;BME280;33990;44.602;10.976;2022-09-01T13:18:41;100757.50;;;26.00;58.20
48200;BME280;33990;44.602;10.976;2022-09-01T13:21:30;100757.34;;;26.02;58.31
48200;BME280;33990;44.602;10.976;2022-09-01T13:23:58;100765.31;;;26.03;58.27
48200;BME280;33990;44.602;10.976;2022-09-01T13:26:26;100763.44;;;26.04;58.47
48200;BME280;33990;44.602;10.976;2022-09-01T13:28:54;100765.09;;;26.05;58.94
48200;BME280;33990;44.602;10.976;2022-09-01T13:31:21;100755.28;;;26.04;58.65
48200;BME280;33990;44.602;10.976;2022-09-01T13:33:58;100765.09;;;26.05;58.98
48200;BME280;33990;44.602;10.976;2022-09-01T13:36:46;100766.34;;;26.02;58.21
48200;BME280;33990;44.602;10.976;2022-09-01T13:39:19;100760.91;;;26.02;57.30
48200;BME280;33990;44.602;10.976;2022-09-01T13:41:47;100755.47;;;26.02;58.39
48200;BME280;33990;44.602;10.976;2022-09-01T13:44:16;100751.75;;;26.03;57.93
48200;BME280;33990;44.602;10.976;2022-09-01T13:46:44;100755.97;;;26.06;57.60
48200;BME280;33990;44.602;10.976;2022-09-01T13:49:32;100745.97;;;26.06;57.37
48200;BME280;33990;44.602;10.976;2022-09-01T13:52:10;100742.41;;;26.06;56.88
48200;BME280;33990;44.602;10.976;2022-09-01T13:54:39;100738.84;;;26.05;56.83
48200;BME280;33990;44.602;10.976;2022-09-01T13:57:06;100742.56;;;26.04;56.57
48200;BME280;33990;44.602;10.976;2022-09-01T13:59:33;100742.03;;;26.09;56.85
48200;BME280;33990;44.602;10.976;2022-09-01T14:02:01;100751.19;;;26.08;56.72
48200;BME280;33990;44.602;10.976;2022-09-01T14:04:28;100743.91;;;26.08;57.01
48200;BME280;33990;44.602;10.976;2022-09-01T14:06:56;100747.66;;;26.07;56.70
48200;BME280;33990;44.602;10.976;2022-09-01T14:09:25;100751.38;;;26.06;57.29
48200;BME280;33990;44.602;10.976;2022-09-01T14:11:53;100753.06;;;26.07;57.17
48200;BME280;33990;44.602;10.976;2022-09-01T14:14:21;100747.66;;;26.07;57.44
48200;BME280;33990;44.602;10.976;2022-09-01T14:16:49;100753.91;;;26.08;57.29
48200;BME280;33990;44.602;10.976;2022-09-01T14:19:17;100754.75;;;26.08;57.06
48200;BME280;33990;44.602;10.976;2022-09-01T14:21:44;100747.66;;;26.07;56.71